Time;durP1;ratioP1;P1;durP2;ratioP2;P2;SDS_P1;SDS_P2;PMS_P1;PMS_P2;Temp;Humidity;BMP_temperature;BMP_pressure;BME280_temperature;BME280_humidity;BME280_pressure;Samples;Min_cycle;Max_cycle;Signal;HPM_P1;HPM_P2
2021/01/09 00:00:06;;;;;;;13.23;11.57;;;6.00;98.70;;;;;;5054067;28;20855;-77
2021/01/09 00:02:32;;;;;;;13.30;10.70;;;5.90;98.70;;;;;;5053507;28;20201;-77
2021/01/09 00:04:57;;;;;;;13.20;10.50;;;5.90;98.50;;;;;;5053323;28;20220;-77
2021/01/09 00:07:23;;;;;;;13.10;11.00;;;5.90;98.70;;;;;;5084008;28;20206;-77
2021/01/09 00:09:49;;;;;;;11.97;10.03;;;5.90;98.70;;;;;;5053739;28;20174;-77
2021/01/09 00:12:15;;;;;;;11.30;9.17;;;5.90;98.40;;;;;;5053376;28;20170;-77
2021/01/09 00:14:40;;;;;;;13.53;10.60;;;5.80;98.30;;;;;;5052144;28;20457;-75
2021/01/09 00:17:07;;;;;;;12.70;10.60;;;5.80;98.20;;;;;;5054054;28;20174;-74
2021/01/09 00:19:33;;;;;;;14.27;11.15;;;5.80;98.50;;;;;;5052990;28;20196;-75
2021/01/09 00:21:59;;;;;;;11.80;10.02;;;5.80;98.70;;;;;;5053490;28;20525;-75
2021/01/09 00:24:25;;;;;;;13.87;11.37;;;5.90;98.70;;;;;;5052498;28;20268;-75
2021/01/09 00:26:51;;;;;;;12.90;10.00;;;5.90;98.70;;;;;;5053849;28;20226;-75
2021/01/09 00:29:17;;;;;;;12.80;10.33;;;5.90;98.60;;;;;;5052550;28;20253;-76
2021/01/09 00:31:43;;;;;;;11.73;10.00;;;5.80;98.60;;;;;;5053247;28;20185;-74
2021/01/09 00:34:09;;;;;;;13.98;9.82;;;5.80;98.60;;;;;;5051766;28;20474;-76
2021/01/09 00:36:35;;;;;;;11.20;10.00;;;5.80;98.60;;;;;;5051742;28;20233;-75
2021/01/09 00:39:02;;;;;;;12.40;10.50;;;5.80;98.60;;;;;;5053784;28;20185;-75
2021/01/09 00:41:29;;;;;;;13.48;9.77;;;5.80;98.40;;;;;;5050816;28;20296;-75
2021/01/09 00:43:56;;;;;;;13.15;10.13;;;5.80;98.40;;;;;;5053274;28;20533;-79
2021/01/09 00:46:22;;;;;;;12.90;9.90;;;5.80;98.40;;;;;;5052398;28;20170;-79
2021/01/09 00:48:48;;;;;;;12.27;9.43;;;5.90;98.50;;;;;;5053410;28;20182;-75
2021/01/09 00:51:15;;;;;;;11.17;9.90;;;5.90;98.50;;;;;;5051783;28;20260;-77
2021/01/09 00:53:41;;;;;;;13.65;10.55;;;5.90;98.40;;;;;;5053024;28;20439;-75
2021/01/09 00:56:08;;;;;;;12.57;9.60;;;5.90;98.40;;;;;;5052749;28;20217;-75
2021/01/09 00:58:34;;;;;;;12.07;9.80;;;5.90;98.50;;;;;;5052118;28;20201;-75
2021/01/09 01:01:00;;;;;;;13.88;10.77;;;5.90;98.50;;;;;;5081319;28;20265;-75
2021/01/09 01:03:29;;;;;;;13.75;10.68;;;5.90;98.50;;;;;;5051854;28;20174;-75
2021/01/09 01:05:55;;;;;;;13.55;9.85;;;5.80;98.60;;;;;;5053108;28;20185;-74
2021/01/09 01:08:22;;;;;;;12.52;10.50;;;5.90;98.70;;;;;;5050385;28;20185;-75
2021/01/09 01:10:48;;;;;;;13.05;9.90;;;5.90;98.70;;;;;;5052245;28;20178;-74
2021/01/09 01:13:15;;;;;;;12.70;10.40;;;5.90;98.70;;;;;;5051049;28;20170;-75
2021/01/09 01:15:44;;;;;;;14.10;10.27;;;5.80;98.80;;;;;;5052823;28;20677;-74
2021/01/09 01:18:10;;;;;;;14.40;12.00;;;5.80;98.70;;;;;;5053036;28;20177;-74
2021/01/09 01:20:36;;;;;;;15.80;12.00;;;5.80;98.70;;;;;;5052306;28;20257;-74
2021/01/09 01:23:01;;;;;;;15.90;11.83;;;5.80;98.60;;;;;;5053040;28;20628;-74
2021/01/09 01:25:27;;;;;;;15.10;11.00;;;5.80;98.60;;;;;;5052327;28;20170;-74
2021/01/09 01:27:53;;;;;;;16.10;11.80;;;5.80;98.60;;;;;;5052841;28;20192;-74
2021/01/09 01:30:19;;;;;;;15.17;12.07;;;5.80;98.60;;;;;;5051753;28;20171;-74
2021/01/09 01:32:45;;;;;;;15.68;11.85;;;5.80;98.60;;;;;;5052827;28;20162;-74
2021/01/09 01:35:11;;;;;;;13.53;11.53;;;5.80;98.60;;;;;;5047770;28;20627;-74
2021/01/09 01:37:36;;;;;;;15.13;12.18;;;5.90;98.70;;;;;;5049183;28;20217;-74
2021/01/09 01:40:05;;;;;;;13.23;11.80;;;5.90;98.70;;;;;;5051391;28;20231;-76
2021/01/09 01:42:30;;;;;;;16.20;12.15;;;5.90;98.60;;;;;;5051513;28;20564;-74
2021/01/09 01:44:56;;;;;;;15.20;12.10;;;5.90;98.70;;;;;;5052480;28;20261;-74
2021/01/09 01:47:22;;;;;;;14.43;10.97;;;6.00;98.50;;;;;;5051703;28;20170;-74
2021/01/09 01:49:49;;;;;;;15.10;11.48;;;6.00;98.50;;;;;;5047016;28;20299;-76
2021/01/09 01:52:16;;;;;;;14.95;11.77;;;6.00;98.50;;;;;;5030084;28;20178;-76
2021/01/09 01:54:45;;;;;;;14.05;11.35;;;6.00;98.40;;;;;;5052170;28;20205;-74
2021/01/09 01:57:12;;;;;;;17.13;12.50;;;6.00;98.40;;;;;;5051045;28;20186;-74
2021/01/09 01:59:42;;;;;;;16.27;12.43;;;6.00;98.40;;;;;;5050462;28;20174;-72
2021/01/09 02:02:10;;;;;;;13.73;11.30;;;5.90;98.30;;;;;;5052336;28;20188;-74
2021/01/09 02:04:36;;;;;;;14.75;11.80;;;6.00;98.50;;;;;;5051160;28;20196;-74
2021/01/09 02:07:10;;;;;;;14.37;11.80;;;6.00;98.40;;;;;;5051895;28;20173;-74
2021/01/09 02:09:41;;;;;;;17.05;12.20;;;6.00;98.40;;;;;;5050448;28;20478;-74
2021/01/09 02:12:11;;;;;;;15.20;11.88;;;6.00;98.50;;;;;;5050960;28;20155;-76
2021/01/09 02:14:50;;;;;;;16.88;12.55;;;6.00;98.70;;;;;;5045835;28;20253;-74
2021/01/09 02:17:17;;;;;;;17.85;13.02;;;6.00;98.90;;;;;;5050329;28;20185;-76
2021/01/09 02:19:44;;;;;;;17.48;13.05;;;5.90;98.80;;;;;;5050848;28;20161;-74
2021/01/09 02:22:21;;;;;;;15.10;11.50;;;5.90;98.90;;;;;;5052085;28;20176;-74
2021/01/09 02:24:47;;;;;;;14.02;12.00;;;5.90;99.00;;;;;;5052243;28;20185;-74
2021/01/09 02:27:13;;;;;;;17.20;12.75;;;5.90;99.00;;;;;;5052026;28;20683;-74
2021/01/09 02:30:04;;;;;;;15.32;12.30;;;6.00;99.00;;;;;;5050150;28;20181;-74
2021/01/09 02:32:56;;;;;;;15.77;12.10;;;6.00;98.80;;;;;;5050081;28;20174;-74
2021/01/09 02:35:23;;;;;;;14.88;12.18;;;6.00;98.60;;;;;;5050785;28;20274;-72
2021/01/09 02:37:49;;;;;;;15.43;12.30;;;6.00;98.40;;;;;;5052003;28;20577;-74
2021/01/09 02:40:18;;;;;;;14.48;11.10;;;6.00;98.40;;;;;;5056065;28;20185;-77
2021/01/09 02:42:44;;;;;;;18.20;12.05;;;5.90;98.40;;;;;;5061437;28;20182;-75
2021/01/09 02:45:10;;;;;;;15.00;12.15;;;6.00;98.40;;;;;;5057696;28;20177;-75
2021/01/09 02:47:36;;;;;;;16.15;12.50;;;5.90;98.50;;;;;;5060388;28;20201;-75
2021/01/09 02:50:06;;;;;;;13.10;10.67;;;5.90;98.50;;;;;;5055103;28;20205;-75
2021/01/09 02:52:32;;;;;;;15.15;11.40;;;5.90;98.50;;;;;;5053531;28;20913;-75
2021/01/09 02:54:58;;;;;;;16.67;12.03;;;5.90;98.60;;;;;;5055450;28;20201;-75
2021/01/09 02:57:24;;;;;;;16.70;11.90;;;5.90;98.70;;;;;;5054998;28;20214;-75
2021/01/09 02:59:49;;;;;;;14.80;11.33;;;5.90;98.60;;;;;;5055743;28;20383;-75
2021/01/09 03:02:15;;;;;;;16.27;11.47;;;5.90;98.60;;;;;;5054923;28;20209;-76
2021/01/09 03:04:41;;;;;;;14.37;11.83;;;5.90;98.70;;;;;;5053750;28;20579;-74
2021/01/09 03:07:07;;;;;;;14.37;11.70;;;5.90;99.00;;;;;;5055711;28;20167;-74
2021/01/09 03:09:33;;;;;;;15.53;11.57;;;5.80;99.10;;;;;;5054660;28;20178;-75
2021/01/09 03:11:59;;;;;;;17.63;12.40;;;5.90;99.50;;;;;;5055689;28;20581;-74
2021/01/09 03:14:24;;;;;;;16.10;11.73;;;5.80;99.60;;;;;;5054662;28;20821;-75
2021/01/09 03:16:50;;;;;;;17.67;12.57;;;5.80;99.50;;;;;;5055626;28;20436;-74
2021/01/09 03:19:16;;;;;;;15.70;11.50;;;5.80;99.40;;;;;;5055375;28;20177;-75
2021/01/09 03:21:41;;;;;;;14.93;11.80;;;5.90;99.30;;;;;;5055029;28;20618;-74
2021/01/09 03:24:07;;;;;;;16.63;12.77;;;5.90;99.20;;;;;;5055216;28;20669;-75
2021/01/09 03:26:34;;;;;;;15.10;12.32;;;5.90;99.10;;;;;;5057716;28;20178;-75
2021/01/09 03:28:59;;;;;;;17.55;13.60;;;5.90;99.10;;;;;;5063693;28;20179;-74
2021/01/09 03:31:27;;;;;;;15.67;11.80;;;5.90;99.00;;;;;;5061980;28;20253;-74
2021/01/09 03:33:53;;;;;;;16.75;12.48;;;5.90;98.90;;;;;;5065612;28;20581;-74
2021/01/09 03:36:18;;;;;;;18.97;12.60;;;5.90;99.10;;;;;;5064773;28;20293;-77
2021/01/09 03:38:45;;;;;;;14.97;12.07;;;5.90;99.20;;;;;;5063539;28;20232;-75
2021/01/09 03:41:10;;;;;;;16.45;12.15;;;6.00;99.20;;;;;;5059612;28;20436;-76
2021/01/09 03:43:38;;;;;;;16.50;11.90;;;5.90;99.10;;;;;;5067720;28;20185;-74
2021/01/09 03:46:03;;;;;;;14.57;11.50;;;5.90;99.30;;;;;;5062467;28;20244;-74
2021/01/09 03:48:29;;;;;;;16.90;13.13;;;5.90;99.30;;;;;;5063375;28;20181;-75
2021/01/09 03:50:55;;;;;;;15.17;11.10;;;5.90;99.30;;;;;;5062171;28;20174;-74
2021/01/09 03:53:20;;;;;;;17.43;12.60;;;5.90;99.30;;;;;;5052828;28;20181;-76
2021/01/09 03:55:46;;;;;;;14.00;11.10;;;5.90;99.50;;;;;;5054726;28;20460;-74
2021/01/09 03:58:12;;;;;;;14.37;11.53;;;5.90;99.50;;;;;;5054730;28;20185;-74
2021/01/09 04:00:38;;;;;;;16.67;10.77;;;5.90;99.50;;;;;;5053099;28;20170;-74
2021/01/09 04:03:03;;;;;;;17.70;13.17;;;5.90;99.60;;;;;;5054667;28;20614;-74
2021/01/09 04:05:29;;;;;;;18.43;12.43;;;5.80;99.60;;;;;;5053682;28;20192;-75
2021/01/09 04:07:55;;;;;;;14.47;11.20;;;5.80;99.70;;;;;;5054502;28;20261;-75
2021/01/09 04:10:20;;;;;;;16.07;11.67;;;5.80;99.90;;;;;;5052857;28;20178;-76
2021/01/09 04:12:46;;;;;;;14.90;10.90;;;5.80;99.90;;;;;;5054177;28;20200;-74
2021/01/09 04:15:12;;;;;;;15.60;11.97;;;5.80;99.90;;;;;;5053098;28;20228;-75
2021/01/09 04:17:39;;;;;;;14.88;10.85;;;5.80;99.90;;;;;;5052116;28;20174;-74
2021/01/09 04:20:05;;;;;;;16.33;11.80;;;5.80;99.90;;;;;;5053077;28;20201;-74
2021/01/09 04:22:31;;;;;;;17.75;12.20;;;5.80;99.90;;;;;;5058509;28;20182;-74
2021/01/09 04:24:57;;;;;;;14.50;11.83;;;5.80;99.90;;;;;;5053816;28;20176;-74
2021/01/09 04:27:22;;;;;;;16.20;12.13;;;5.80;99.90;;;;;;5052946;28;20630;-76
2021/01/09 04:29:48;;;;;;;13.70;10.97;;;5.80;99.90;;;;;;5053771;28;20178;-75
2021/01/09 04:32:14;;;;;;;18.13;12.63;;;5.80;99.90;;;;;;5036276;28;20178;-74
2021/01/09 04:34:40;;;;;;;17.70;12.20;;;5.80;99.90;;;;;;5053403;28;20206;-74
2021/01/09 04:37:06;;;;;;;20.05;12.73;;;5.70;99.90;;;;;;5053659;28;20225;-74
2021/01/09 04:39:32;;;;;;;17.73;12.67;;;5.80;99.90;;;;;;5053240;28;20617;-74
2021/01/09 04:41:58;;;;;;;18.50;12.80;;;5.80;99.90;;;;;;5053904;28;20243;-74
2021/01/09 04:44:23;;;;;;;18.17;12.33;;;5.80;99.90;;;;;;5053311;28;20264;-76
2021/01/09 04:46:54;;;;;;;20.00;13.80;;;5.70;99.90;;;;;;5053716;28;20189;-74
2021/01/09 04:49:22;;;;;;;17.75;12.88;;;5.70;99.90;;;;;;5054000;28;20416;-74
2021/01/09 04:51:49;;;;;;;18.65;13.32;;;5.70;99.90;;;;;;5052278;28;20178;-74
2021/01/09 04:54:17;;;;;;;22.60;14.30;;;5.60;99.90;;;;;;5053049;28;20261;-74
2021/01/09 04:56:45;;;;;;;22.60;14.23;;;5.50;99.90;;;;;;5052840;28;20181;-74
2021/01/09 04:59:16;;;;;;;17.42;13.75;;;5.50;99.90;;;;;;5053255;28;20572;-74
2021/01/09 05:01:43;;;;;;;21.55;13.60;;;5.50;99.90;;;;;;5052770;28;20193;-74
2021/01/09 05:04:09;;;;;;;21.67;13.73;;;5.50;99.90;;;;;;5053457;28;20200;-74
2021/01/09 05:06:39;;;;;;;19.73;14.10;;;5.50;99.90;;;;;;5052659;28;20178;-74
2021/01/09 05:09:06;;;;;;;25.15;14.50;;;5.50;99.90;;;;;;5053019;28;20675;-74
2021/01/09 05:11:34;;;;;;;18.77;13.75;;;5.50;99.90;;;;;;5051308;28;20174;-74
2021/01/09 05:14:01;;;;;;;18.98;13.68;;;5.60;99.90;;;;;;5053462;28;20178;-74
2021/01/09 05:16:27;;;;;;;18.58;12.60;;;5.50;99.90;;;;;;5052678;28;20285;-75
2021/01/09 05:18:52;;;;;;;18.33;12.70;;;5.50;99.90;;;;;;5053181;28;20264;-74
2021/01/09 05:21:19;;;;;;;19.43;13.90;;;5.60;99.90;;;;;;5053136;28;20474;-74
2021/01/09 05:24:02;;;;;;;19.67;13.60;;;5.60;99.90;;;;;;5050298;28;20263;-75
2021/01/09 05:26:28;;;;;;;21.45;13.07;;;5.60;99.90;;;;;;5051936;28;20648;-75
2021/01/09 05:28:59;;;;;;;19.63;14.00;;;5.60;99.60;;;;;;5052939;28;20170;-75
2021/01/09 05:31:27;;;;;;;20.23;13.90;;;5.60;99.50;;;;;;5083583;28;20186;-76
2021/01/09 05:33:54;;;;;;;18.85;13.00;;;5.60;99.30;;;;;;5052827;28;20174;-75
2021/01/09 05:36:21;;;;;;;22.55;14.65;;;5.60;99.40;;;;;;5051395;28;20225;-74
2021/01/09 05:38:49;;;;;;;18.65;12.65;;;5.70;99.40;;;;;;5052016;28;20813;-75
2021/01/09 05:41:23;;;;;;;19.67;13.55;;;5.70;99.40;;;;;;5052718;28;20212;-75
2021/01/09 05:44:06;;;;;;;19.77;13.60;;;5.70;99.50;;;;;;5050966;28;20256;-75
2021/01/09 05:46:34;;;;;;;16.33;12.75;;;5.70;99.60;;;;;;5051869;28;20177;-75
2021/01/09 05:49:01;;;;;;;22.05;15.05;;;5.70;99.60;;;;;;5052571;28;20169;-74
2021/01/09 05:51:28;;;;;;;25.90;15.75;;;5.70;99.60;;;;;;5050570;28;20232;-76
2021/01/09 05:53:54;;;;;;;24.80;15.00;;;5.70;99.60;;;;;;5052334;28;20178;-75
2021/01/09 05:56:21;;;;;;;20.42;14.05;;;5.70;99.60;;;;;;5052434;28;20256;-74
2021/01/09 05:58:49;;;;;;;22.52;14.63;;;5.70;99.60;;;;;;5051684;28;20260;-74
2021/01/09 06:01:19;;;;;;;26.10;15.90;;;5.70;99.60;;;;;;5052409;28;20182;-74
2021/01/09 06:03:47;;;;;;;21.25;14.13;;;5.80;99.70;;;;;;5051635;28;20361;-74
2021/01/09 06:06:40;;;;;;;22.27;14.20;;;5.80;99.40;;;;;;5052127;28;20217;-74
2021/01/09 06:09:10;;;;;;;22.30;14.68;;;5.80;99.20;;;;;;5052363;28;20212;-74
2021/01/09 06:11:40;;;;;;;22.85;13.57;;;5.90;99.10;;;;;;5051507;28;20178;-74
2021/01/09 06:14:09;;;;;;;23.10;14.73;;;5.80;98.90;;;;;;5052170;28;20198;-74
2021/01/09 06:16:39;;;;;;;20.45;14.65;;;5.80;99.00;;;;;;5051201;28;20526;-74
2021/01/09 06:19:06;;;;;;;24.33;15.05;;;5.80;99.10;;;;;;5051526;28;20167;-74
2021/01/09 06:21:34;;;;;;;22.45;14.30;;;5.90;99.00;;;;;;5051068;28;20193;-75
2021/01/09 06:24:02;;;;;;;21.42;14.80;;;5.80;98.80;;;;;;5052070;28;20244;-75
2021/01/09 06:26:29;;;;;;;25.20;16.65;;;5.90;98.90;;;;;;5066736;28;20537;-76
2021/01/09 06:28:57;;;;;;;24.40;14.50;;;5.90;98.80;;;;;;5051337;28;20189;-74
2021/01/09 06:31:28;;;;;;;24.55;14.73;;;5.90;98.80;;;;;;5072667;28;20401;-74
2021/01/09 06:33:57;;;;;;;22.43;15.10;;;5.90;98.60;;;;;;5048283;28;20187;-74
2021/01/09 06:36:25;;;;;;;25.02;14.98;;;5.90;98.60;;;;;;5051968;28;20493;-74
2021/01/09 06:38:56;;;;;;;21.58;14.60;;;5.90;98.60;;;;;;5049480;28;20238;-74
2021/01/09 06:41:25;;;;;;;21.87;13.77;;;5.80;98.40;;;;;;5051415;28;20182;-74
2021/01/09 06:43:52;;;;;;;21.77;14.32;;;5.80;98.40;;;;;;5051201;28;20490;-74
2021/01/09 06:46:35;;;;;;;23.40;13.80;;;5.80;98.40;;;;;;5052145;28;20192;-74
2021/01/09 06:49:03;;;;;;;24.05;15.43;;;5.80;98.40;;;;;;5052021;28;20170;-74
2021/01/09 06:51:34;;;;;;;22.38;14.00;;;5.80;98.30;;;;;;5051272;28;20170;-76
2021/01/09 06:54:15;;;;;;;24.67;14.70;;;5.80;98.40;;;;;;5051737;28;20186;-75
2021/01/09 06:56:43;;;;;;;23.50;15.23;;;5.80;98.20;;;;;;5051034;28;20525;-75
2021/01/09 06:59:09;;;;;;;26.40;15.90;;;5.80;98.20;;;;;;5051355;28;20182;-75
2021/01/09 07:01:38;;;;;;;23.83;14.98;;;5.80;98.30;;;;;;5050628;28;20463;-75
2021/01/09 07:04:07;;;;;;;23.23;15.38;;;5.80;98.20;;;;;;5052128;28;20214;-74
2021/01/09 07:06:58;;;;;;;19.90;14.50;;;5.80;98.30;;;;;;5051037;28;20181;-76
2021/01/09 07:09:25;;;;;;;22.88;14.68;;;5.80;98.10;;;;;;5050729;28;20178;-74
2021/01/09 07:11:54;;;;;;;24.05;15.10;;;5.90;98.30;;;;;;5057440;28;20351;-74
2021/01/09 07:14:20;;;;;;;24.90;16.90;;;5.90;98.40;;;;;;5056552;28;20547;-74
2021/01/09 07:16:47;;;;;;;27.43;17.57;;;5.90;98.20;;;;;;5050481;28;20424;-74
2021/01/09 07:19:14;;;;;;;24.98;15.70;;;5.90;98.00;;;;;;5051854;28;20572;-74
2021/01/09 07:21:40;;;;;;;22.83;15.07;;;6.00;98.00;;;;;;5050787;28;20193;-74
2021/01/09 07:24:09;;;;;;;22.93;15.50;;;6.00;97.90;;;;;;5051107;28;20186;-74
2021/01/09 07:26:39;;;;;;;26.10;16.57;;;6.00;97.90;;;;;;5050683;28;20405;-76
2021/01/09 07:29:05;;;;;;;25.02;16.08;;;6.00;97.90;;;;;;5051146;28;20416;-74
2021/01/09 07:31:34;;;;;;;26.45;16.02;;;6.00;97.70;;;;;;5047392;28;20208;-76
2021/01/09 07:34:00;;;;;;;22.63;14.77;;;6.00;97.70;;;;;;5051498;28;20166;-74
2021/01/09 07:36:27;;;;;;;25.30;15.53;;;6.10;97.90;;;;;;5087354;28;20228;-74
2021/01/09 07:39:00;;;;;;;23.73;14.90;;;6.00;97.70;;;;;;5068817;28;20527;-74
2021/01/09 07:41:37;;;;;;;25.55;15.98;;;6.00;97.70;;;;;;5067195;28;20170;-74
2021/01/09 07:44:16;;;;;;;24.38;16.70;;;6.10;97.60;;;;;;5034080;28;20174;-75
2021/01/09 07:46:56;;;;;;;23.92;15.25;;;6.00;97.70;;;;;;5052612;28;20224;-75
2021/01/09 07:49:36;;;;;;;23.83;15.98;;;6.00;97.90;;;;;;5050555;28;20182;-75
2021/01/09 07:52:06;;;;;;;20.85;13.98;;;6.00;98.10;;;;;;5043702;28;20170;-75
2021/01/09 07:54:44;;;;;;;24.15;16.02;;;6.00;98.20;;;;;;5049261;28;20214;-77
2021/01/09 07:57:19;;;;;;;21.33;15.43;;;6.00;98.40;;;;;;5054713;28;20243;-75
2021/01/09 07:59:56;;;;;;;23.77;15.45;;;6.00;98.50;;;;;;5054197;28;20188;-75
2021/01/09 08:02:38;;;;;;;25.80;15.07;;;6.00;98.60;;;;;;5082942;28;20173;-75
2021/01/09 08:05:19;;;;;;;20.63;14.02;;;6.10;98.40;;;;;;5054396;28;20182;-75
2021/01/09 08:07:57;;;;;;;20.55;14.27;;;6.10;98.30;;;;;;5051820;28;20177;-75
2021/01/09 08:10:29;;;;;;;23.95;13.35;;;6.10;98.30;;;;;;5053806;28;20267;-75
2021/01/09 08:12:59;;;;;;;20.85;14.30;;;6.10;98.30;;;;;;5053406;28;20194;-75
2021/01/09 08:15:26;;;;;;;21.90;15.27;;;6.10;98.60;;;;;;5054268;28;20268;-75
2021/01/09 08:17:53;;;;;;;30.98;14.90;;;6.10;98.30;;;;;;5053330;28;20177;-75
2021/01/09 08:20:20;;;;;;;22.65;14.07;;;6.10;98.40;;;;;;5053100;28;20174;-75
2021/01/09 08:22:59;;;;;;;22.65;14.88;;;6.10;98.20;;;;;;5067222;28;20182;-75
2021/01/09 08:25:28;;;;;;;23.70;14.05;;;6.10;98.10;;;;;;5054467;28;20220;-75
2021/01/09 08:27:55;;;;;;;24.98;16.92;;;6.10;98.00;;;;;;5053323;28;20183;-75
2021/01/09 08:30:26;;;;;;;23.13;14.55;;;6.10;98.50;;;;;;5053834;28;20521;-75
2021/01/09 08:33:02;;;;;;;23.83;15.13;;;6.10;98.00;;;;;;5052898;28;20268;-75
2021/01/09 08:35:28;;;;;;;28.77;16.10;;;6.10;98.10;;;;;;5053935;28;20201;-75
2021/01/09 08:37:54;;;;;;;22.60;14.57;;;6.10;98.00;;;;;;5051102;28;21139;-75
2021/01/09 08:40:23;;;;;;;22.50;15.75;;;6.10;98.10;;;;;;5053812;28;20202;-75
2021/01/09 08:42:59;;;;;;;23.13;14.45;;;6.10;98.30;;;;;;5053019;28;20170;-75
2021/01/09 08:45:49;;;;;;;24.00;15.65;;;6.20;98.30;;;;;;5053891;28;20162;-75
2021/01/09 08:48:27;;;;;;;19.40;13.68;;;6.20;98.20;;;;;;5053544;28;20190;-75
2021/01/09 08:51:18;;;;;;;24.17;13.88;;;6.20;98.20;;;;;;5052665;28;20529;-75
2021/01/09 08:53:55;;;;;;;23.77;13.98;;;6.20;98.20;;;;;;5084443;28;20202;-75
2021/01/09 08:56:23;;;;;;;21.67;14.03;;;6.30;98.20;;;;;;5053013;28;20220;-75
2021/01/09 08:58:49;;;;;;;21.45;14.15;;;6.30;98.00;;;;;;5052472;28;20490;-75
2021/01/09 09:01:20;;;;;;;20.92;13.77;;;6.30;98.00;;;;;;5052584;28;20637;-75
2021/01/09 09:03:51;;;;;;;21.65;15.40;;;6.30;98.00;;;;;;5052626;28;20167;-75
2021/01/09 09:06:20;;;;;;;22.58;15.10;;;6.40;98.10;;;;;;5085672;28;20186;-74
2021/01/09 09:08:47;;;;;;;20.47;13.97;;;6.40;98.10;;;;;;5052502;28;20610;-75
2021/01/09 09:11:15;;;;;;;21.23;14.32;;;6.50;98.40;;;;;;5053291;28;20870;-75
2021/01/09 09:13:40;;;;;;;21.17;14.80;;;6.60;98.40;;;;;;5052457;28;20634;-77
2021/01/09 09:16:18;;;;;;;21.80;14.07;;;6.60;98.20;;;;;;5053386;28;20197;-75
2021/01/09 09:18:44;;;;;;;23.20;15.15;;;6.60;98.10;;;;;;5051159;28;20186;-76
2021/01/09 09:21:10;;;;;;;25.77;15.40;;;6.60;98.00;;;;;;5051233;28;20182;-75
2021/01/09 09:23:37;;;;;;;22.63;14.50;;;6.60;98.00;;;;;;5048298;28;20257;-75
2021/01/09 09:26:07;;;;;;;20.95;15.05;;;6.60;98.00;;;;;;5031432;28;20413;-75
2021/01/09 09:28:53;;;;;;;21.77;15.13;;;6.60;98.10;;;;;;5032881;28;20211;-75
2021/01/09 09:31:28;;;;;;;21.23;15.38;;;6.60;98.00;;;;;;5033091;28;20394;-76
2021/01/09 09:33:58;;;;;;;19.60;14.05;;;6.60;97.90;;;;;;5031889;28;20242;-75
2021/01/09 09:36:24;;;;;;;24.70;15.73;;;6.60;98.00;;;;;;5033019;28;20539;-75
2021/01/09 09:38:50;;;;;;;23.77;15.33;;;6.60;98.00;;;;;;5032041;28;20231;-75
2021/01/09 09:41:16;;;;;;;21.43;13.60;;;6.60;97.90;;;;;;5034127;28;20175;-76
2021/01/09 09:43:52;;;;;;;19.87;13.30;;;6.60;97.80;;;;;;5051657;28;20178;-77
2021/01/09 09:46:17;;;;;;;21.05;14.25;;;6.60;97.70;;;;;;5051468;28;20162;-75
2021/01/09 09:48:44;;;;;;;20.93;13.50;;;6.60;98.00;;;;;;5084156;28;20283;-75
2021/01/09 09:51:10;;;;;;;20.73;13.10;;;6.60;97.60;;;;;;5051374;28;20178;-74
2021/01/09 09:53:39;;;;;;;20.00;13.50;;;6.70;97.40;;;;;;5051175;28;20524;-74
2021/01/09 09:56:15;;;;;;;20.53;13.63;;;6.70;97.40;;;;;;5051897;28;20467;-75
2021/01/09 09:58:42;;;;;;;18.00;11.90;;;6.70;97.60;;;;;;5051595;28;20390;-76
2021/01/09 10:01:34;;;;;;;21.43;14.30;;;6.70;97.60;;;;;;5052248;28;20511;-75
2021/01/09 10:04:01;;;;;;;18.10;13.05;;;6.70;97.40;;;;;;5052223;28;20574;-74
2021/01/09 10:06:37;;;;;;;22.80;13.60;;;6.70;97.30;;;;;;5052418;28;20257;-75
2021/01/09 10:09:19;;;;;;;20.00;13.30;;;6.70;97.40;;;;;;5051468;28;20775;-75
2021/01/09 10:11:47;;;;;;;20.70;13.07;;;6.70;97.40;;;;;;5051113;28;20171;-77
2021/01/09 10:14:13;;;;;;;19.90;13.60;;;6.70;98.80;;;;;;5052083;28;20897;-75
2021/01/09 10:16:39;;;;;;;20.30;15.60;;;7.30;99.90;;;;;;5051095;28;20378;-76
2021/01/09 10:19:05;;;;;;;21.33;15.27;;;8.20;99.90;;;;;;5051438;28;20402;-76
2021/01/09 10:21:32;;;;;;;22.40;15.13;;;9.00;99.90;;;;;;5052356;28;20413;-74
2021/01/09 10:23:58;;;;;;;18.50;14.47;;;9.60;99.90;;;;;;5050477;28;20439;-76
2021/01/09 10:26:38;;;;;;;20.13;15.50;;;10.30;99.90;;;;;;5051488;28;20920;-75
2021/01/09 10:29:04;;;;;;;18.90;15.43;;;10.70;97.20;;;;;;5051029;28;20399;-76
2021/01/09 10:31:34;;;;;;;18.40;13.87;;;11.20;94.70;;;;;;5051665;28;20448;-76
2021/01/09 10:34:01;;;;;;;18.30;13.80;;;11.60;94.10;;;;;;5050607;28;20414;-76
2021/01/09 10:36:32;;;;;;;21.20;14.50;;;12.00;91.90;;;;;;5050550;28;20465;-76
2021/01/09 10:38:58;;;;;;;18.03;13.47;;;12.30;90.20;;;;;;5083075;28;20461;-77
2021/01/09 10:41:24;;;;;;;18.30;14.10;;;12.70;89.40;;;;;;5064327;28;20984;-76
2021/01/09 10:43:50;;;;;;;18.20;14.43;;;12.90;84.50;;;;;;5055411;28;20403;-76
2021/01/09 10:46:21;;;;;;;19.67;14.87;;;13.10;86.60;;;;;;5057944;28;20420;-76
2021/01/09 10:48:47;;;;;;;18.97;15.13;;;13.30;83.50;;;;;;5071100;28;20447;-77
2021/01/09 10:51:17;;;;;;;19.43;14.83;;;13.40;81.90;;;;;;5070707;28;20438;-76
2021/01/09 10:53:44;;;;;;;18.17;13.27;;;13.60;80.40;;;;;;5041932;28;20431;-80
2021/01/09 10:56:10;;;;;;;19.40;15.63;;;13.70;78.80;;;;;;5071588;28;20656;-76
2021/01/09 10:58:36;;;;;;;18.13;14.23;;;13.80;77.50;;;;;;5071908;28;20407;-76
2021/01/09 11:01:03;;;;;;;18.00;15.30;;;13.90;78.00;;;;;;5070872;28;20414;-76
2021/01/09 11:03:29;;;;;;;17.37;13.43;;;14.00;77.90;;;;;;5054824;28;20276;-74
2021/01/09 11:05:55;;;;;;;17.77;13.97;;;13.80;73.80;;;;;;5051007;28;20914;-72
2021/01/09 11:08:20;;;;;;;19.97;15.00;;;13.30;71.10;;;;;;5051524;28;20252;-72
2021/01/09 11:10:46;;;;;;;20.80;15.33;;;12.80;71.80;;;;;;5054021;28;20206;-75
2021/01/09 11:13:12;;;;;;;189.57;115.33;;;12.20;73.00;;;;;;5055381;28;20575;-73
2021/01/09 11:15:51;;;;;;;62.88;44.00;;;11.80;75.50;;;;;;5054491;28;20434;-73
2021/01/09 11:18:18;;;;;;;60.07;39.77;;;11.40;77.40;;;;;;5055525;28;20162;-73
2021/01/09 11:20:50;;;;;;;20.60;15.90;;;10.90;79.00;;;;;;5053515;28;20408;-73
2021/01/09 11:23:16;;;;;;;19.37;14.97;;;10.50;80.30;;;;;;5053955;28;20961;-72
2021/01/09 11:25:46;;;;;;;22.60;14.17;;;10.10;81.60;;;;;;5055610;28;20506;-72
2021/01/09 11:28:13;;;;;;;21.00;13.87;;;9.70;85.20;;;;;;5055048;28;20408;-72
2021/01/09 11:30:40;;;;;;;22.33;13.90;;;9.50;87.60;;;;;;5055149;28;20408;-72
2021/01/09 11:33:06;;;;;;;21.30;14.27;;;9.20;88.90;;;;;;5054842;28;20732;-71
2021/01/09 11:35:33;;;;;;;20.77;14.60;;;9.00;90.10;;;;;;5055075;28;20535;-72
2021/01/09 11:37:59;;;;;;;18.43;14.70;;;8.80;90.80;;;;;;5054529;28;20761;-75
2021/01/09 11:40:28;;;;;;;21.23;14.10;;;8.70;93.60;;;;;;5055056;28;20407;-74
2021/01/09 11:42:53;;;;;;;126.83;65.70;;;9.00;94.50;;;;;;5054212;28;20412;-73
2021/01/09 11:45:20;;;;;;;85.67;49.10;;;9.80;99.90;;;;;;5054940;28;20428;-75
2021/01/09 11:47:46;;;;;;;20.37;13.07;;;10.40;99.90;;;;;;5053600;28;20208;-77
2021/01/09 11:50:13;;;;;;;19.30;14.60;;;10.80;98.10;;;;;;5054294;28;20444;-75
2021/01/09 11:52:39;;;;;;;18.90;13.10;;;11.40;95.00;;;;;;5054530;28;20404;-75
2021/01/09 11:55:06;;;;;;;19.13;13.60;;;11.80;92.00;;;;;;5035912;28;20979;-75
2021/01/09 11:57:32;;;;;;;17.30;12.23;;;12.20;90.80;;;;;;5054450;28;20419;-73
2021/01/09 11:59:58;;;;;;;15.57;12.93;;;12.60;87.20;;;;;;5053568;28;20426;-75
2021/01/09 12:02:24;;;;;;;17.10;13.47;;;12.90;90.20;;;;;;5054402;28;20423;-75
2021/01/09 12:04:50;;;;;;;15.60;13.90;;;13.20;88.60;;;;;;5053938;28;20696;-77
2021/01/09 12:07:16;;;;;;;17.70;14.00;;;13.50;86.80;;;;;;5054580;28;20436;-74
2021/01/09 12:09:41;;;;;;;16.80;13.80;;;13.70;83.00;;;;;;5053983;28;20448;-75
2021/01/09 12:12:08;;;;;;;16.63;13.70;;;13.80;78.80;;;;;;5053732;28;20201;-75
2021/01/09 12:14:34;;;;;;;14.50;12.80;;;14.00;79.00;;;;;;5054388;28;20735;-75
2021/01/09 12:17:00;;;;;;;14.50;12.27;;;14.00;76.80;;;;;;5053073;28;20471;-75
2021/01/09 12:19:27;;;;;;;17.27;12.70;;;14.00;77.00;;;;;;5054239;28;20412;-75
2021/01/09 12:21:53;;;;;;;16.43;13.07;;;14.10;76.00;;;;;;5051493;28;20417;-75
2021/01/09 12:24:19;;;;;;;16.50;13.90;;;14.20;77.50;;;;;;5054319;28;20413;-75
2021/01/09 12:26:50;;;;;;;17.40;13.83;;;14.40;80.30;;;;;;5054175;28;20399;-75
2021/01/09 12:29:15;;;;;;;17.73;13.93;;;14.50;77.90;;;;;;5053915;28;20393;-75
2021/01/09 12:31:41;;;;;;;18.20;13.90;;;14.50;76.20;;;;;;5052999;28;20427;-75
2021/01/09 12:34:07;;;;;;;14.43;12.93;;;14.40;73.00;;;;;;5053157;28;20183;-75
2021/01/09 12:36:33;;;;;;;14.03;12.63;;;14.30;73.50;;;;;;5053879;28;20219;-75
2021/01/09 12:38:59;;;;;;;14.90;12.40;;;14.40;73.30;;;;;;5053211;28;20453;-75
2021/01/09 12:41:35;;;;;;;15.03;12.70;;;14.50;74.00;;;;;;5052547;28;20179;-74